createdAt,value
2022-12-04T00:03:19.685Z,97650.00
2022-12-04T00:07:20.818Z,97657.00
2022-12-04T00:11:24.597Z,97656.00
2022-12-04T00:15:26.589Z,97637.00
2022-12-04T00:19:28.145Z,97638.00
2022-12-04T00:23:29.345Z,97623.00
2022-12-04T00:27:30.596Z,97639.00
2022-12-04T00:31:32.442Z,97641.00
2022-12-04T00:35:33.494Z,97643.00
2022-12-04T00:39:34.494Z,97646.00
2022-12-04T00:43:35.568Z,97650.00
2022-12-04T00:47:36.808Z,97648.00
2022-12-04T00:51:38.568Z,97644.00
2022-12-04T00:55:41.391Z,97648.00
2022-12-04T00:59:42.715Z,97664.00
2022-12-04T01:03:44.672Z,97665.00
2022-12-04T01:07:45.897Z,97650.00
2022-12-04T01:11:47.321Z,97656.00
2022-12-04T01:15:49.018Z,97638.00
2022-12-04T01:19:50.191Z,97639.00
2022-12-04T01:23:51.640Z,97641.00
2022-12-04T01:27:52.647Z,97638.00
2022-12-04T01:31:53.737Z,97617.00
2022-12-04T01:35:56.413Z,97613.00
2022-12-04T01:39:58.655Z,97606.00
2022-12-04T01:44:18.134Z,97613.00
2022-12-04T01:48:32.175Z,97592.00
2022-12-04T01:52:33.405Z,97596.00
2022-12-04T01:56:38.304Z,97596.00
2022-12-04T02:00:39.544Z,97602.00
2022-12-04T02:04:42.209Z,97603.00
2022-12-04T02:08:43.180Z,97619.00
2022-12-04T02:13:06.113Z,97623.00
2022-12-04T02:17:40.774Z,97628.00
2022-12-04T02:21:45.354Z,97632.00
2022-12-04T02:26:10.982Z,97619.00
2022-12-04T02:30:14.633Z,97622.00
2022-12-04T02:34:31.410Z,97625.00
2022-12-04T02:38:42.378Z,97632.00
2022-12-04T02:42:47.183Z,97630.00
2022-12-04T02:46:51.643Z,97630.00
2022-12-04T02:50:55.283Z,97623.00
2022-12-04T02:55:04.008Z,97624.00
2022-12-04T02:59:12.691Z,97625.00
2022-12-04T03:03:17.604Z,97620.00
2022-12-04T03:07:22.482Z,97619.00
2022-12-04T03:11:26.948Z,97637.00
2022-12-04T03:15:34.896Z,97618.00
2022-12-04T03:19:45.425Z,97603.00
2022-12-04T03:23:50.221Z,97615.00
2022-12-04T03:27:55.041Z,97617.00
2022-12-04T03:32:02.665Z,97622.00
2022-12-04T03:36:16.268Z,97612.00
2022-12-04T03:40:24.265Z,97613.00
2022-12-04T03:44:32.072Z,97603.00
2022-12-04T03:48:45.948Z,97609.00
2022-12-04T03:52:50.913Z,97610.00
2022-12-04T03:56:55.710Z,97597.00
2022-12-04T04:00:59.465Z,97607.00
2022-12-04T04:05:02.644Z,97588.00
2022-12-04T04:09:07.649Z,97603.00
2022-12-04T04:13:31.191Z,97599.00
2022-12-04T04:17:54.641Z,97606.00
2022-12-04T04:22:16.241Z,97609.00
2022-12-04T04:26:18.016Z,97599.00
2022-12-04T04:30:19.716Z,97606.00
2022-12-04T04:34:36.090Z,97600.00
2022-12-04T04:38:46.729Z,97601.00
2022-12-04T04:43:12.715Z,97606.00
2022-12-04T04:47:17.567Z,97602.00
2022-12-04T04:51:19.981Z,97598.00
2022-12-04T04:55:22.764Z,97594.00
2022-12-04T04:59:23.722Z,97588.00
2022-12-04T05:03:26.222Z,97586.00
2022-12-04T05:07:27.271Z,97602.00
2022-12-04T05:11:28.531Z,97612.00
2022-12-04T05:15:29.674Z,97611.00
2022-12-04T05:19:53.791Z,97620.00
2022-12-04T05:23:55.020Z,97613.00
2022-12-04T05:27:55.962Z,97609.00
2022-12-04T05:31:56.813Z,97616.00
2022-12-04T05:35:59.574Z,97602.00
2022-12-04T05:40:00.552Z,97605.00
2022-12-04T05:44:01.531Z,97601.00
2022-12-04T05:48:02.718Z,97602.00
2022-12-04T05:52:04.909Z,97613.00
2022-12-04T05:56:06.886Z,97608.00
2022-12-04T06:00:08.474Z,97590.00
2022-12-04T06:04:10.893Z,97593.00
2022-12-04T06:08:12.172Z,97602.00
2022-12-04T06:12:13.171Z,97601.00
2022-12-04T06:16:15.944Z,97602.00
2022-12-04T06:20:17.391Z,97601.00
2022-12-04T06:24:21.975Z,97601.00
2022-12-04T06:28:22.897Z,97609.00
2022-12-04T06:32:24.087Z,97623.00
2022-12-04T06:36:25.847Z,97618.00
2022-12-04T06:40:26.975Z,97623.00
2022-12-04T06:44:28.093Z,97621.00
2022-12-04T06:48:29.581Z,97609.00
2022-12-04T06:52:33.447Z,97604.00
2022-12-04T06:56:34.641Z,97602.00
2022-12-04T07:00:35.641Z,97606.00
2022-12-04T07:04:36.752Z,97605.00
2022-12-04T07:08:37.675Z,97609.00
2022-12-04T07:12:38.651Z,97604.00
2022-12-04T07:16:41.978Z,97602.00
2022-12-04T07:20:43.328Z,97599.00
2022-12-04T07:24:44.285Z,97594.00
2022-12-04T07:28:45.333Z,97597.00
2022-12-04T07:32:46.443Z,97601.00
2022-12-04T07:36:47.600Z,97603.00
2022-12-04T07:40:48.654Z,97606.00
2022-12-04T07:44:49.682Z,97608.00
2022-12-04T07:48:51.168Z,97595.00
2022-12-04T07:52:52.162Z,97600.00
2022-12-04T07:56:53.140Z,97604.00
2022-12-04T08:00:54.393Z,97607.00
2022-12-04T08:04:55.481Z,97592.00
2022-12-04T08:08:56.976Z,97599.00
2022-12-04T08:12:57.906Z,97593.00
2022-12-04T08:16:58.968Z,97610.00
2022-12-04T08:21:08.235Z,97613.00
2022-12-04T08:25:09.316Z,97608.00
2022-12-04T08:29:10.940Z,97621.00
2022-12-04T08:33:11.897Z,97615.00
2022-12-04T08:37:13.132Z,97625.00
2022-12-04T08:41:36.011Z,97616.00
2022-12-04T08:45:36.985Z,97619.00
2022-12-04T08:49:37.847Z,97618.00
2022-12-04T08:53:38.806Z,97614.00
2022-12-04T08:57:39.912Z,97607.00
2022-12-04T09:01:41.055Z,97609.00
2022-12-04T09:05:45.277Z,97625.00
2022-12-04T09:09:48.546Z,97614.00
2022-12-04T09:13:52.097Z,97611.00
2022-12-04T09:17:53.309Z,97611.00
2022-12-04T09:21:54.452Z,97607.00
2022-12-04T09:25:55.512Z,97593.00
2022-12-04T09:29:56.829Z,97591.00
2022-12-04T09:33:59.372Z,97590.00
2022-12-04T09:38:01.185Z,97594.00
2022-12-04T09:42:12.116Z,97587.00
2022-12-04T09:46:25.707Z,97613.00
2022-12-04T09:50:42.427Z,97599.00
2022-12-04T09:54:44.678Z,97603.00
2022-12-04T09:59:01.351Z,97588.00
2022-12-04T10:03:06.064Z,97603.00
2022-12-04T10:07:11.159Z,97598.00
2022-12-04T10:11:32.496Z,97589.00
2022-12-04T10:16:11.784Z,97598.00
2022-12-04T10:20:40.740Z,97597.00
2022-12-04T10:24:54.313Z,97586.00
2022-12-04T10:29:05.488Z,97580.00
2022-12-04T10:33:30.568Z,97584.00
2022-12-04T10:37:35.191Z,97579.00
2022-12-04T10:41:49.080Z,97574.00
2022-12-04T10:45:50.249Z,97580.00
2022-12-04T10:49:55.152Z,97570.00
2022-12-04T10:53:56.506Z,97552.00
2022-12-04T10:57:57.623Z,97558.00
2022-12-04T11:02:14.484Z,97549.00
2022-12-04T11:06:15.877Z,97548.00
2022-12-04T11:10:35.093Z,97540.00
2022-12-04T11:14:36.283Z,97536.00
2022-12-04T11:18:49.132Z,97539.00
2022-12-04T11:22:58.323Z,97535.00
2022-12-04T11:27:00.400Z,97531.00
2022-12-04T11:31:04.613Z,97533.00
2022-12-04T11:35:12.470Z,97516.00
2022-12-04T11:39:19.918Z,97499.00
2022-12-04T11:43:26.996Z,97498.00
2022-12-04T11:47:31.505Z,97498.00
2022-12-04T11:51:55.109Z,97501.00
2022-12-04T11:56:05.865Z,97478.00
2022-12-04T12:00:16.271Z,97486.00
2022-12-04T12:04:27.393Z,97486.00
2022-12-04T12:08:47.358Z,97479.00
2022-12-04T12:13:08.851Z,97497.00
2022-12-04T12:17:16.796Z,97497.00
2022-12-04T12:21:26.693Z,97490.00
2022-12-04T12:25:34.294Z,97491.00
2022-12-04T12:30:13.236Z,97493.00
2022-12-04T12:34:33.507Z,97512.00
2022-12-04T12:38:38.411Z,97551.00
2022-12-04T12:42:57.861Z,97533.00
2022-12-04T12:47:01.537Z,97529.00
2022-12-04T12:51:31.749Z,97522.00
2022-12-04T12:55:48.022Z,97509.00
2022-12-04T12:59:52.854Z,97509.00
2022-12-04T13:04:06.464Z,97512.00
2022-12-04T13:08:11.510Z,97509.00
2022-12-04T13:12:16.076Z,97494.00
2022-12-04T13:16:23.963Z,97509.00
2022-12-04T13:20:28.801Z,97488.00
2022-12-04T13:24:57.453Z,97495.00
2022-12-04T13:29:10.919Z,97488.00
2022-12-04T13:33:36.937Z,97484.00
2022-12-04T13:37:47.778Z,97482.00
2022-12-04T13:42:01.768Z,97485.00
2022-12-04T13:46:06.320Z,97491.00
2022-12-04T13:50:11.728Z,97486.00
2022-12-04T13:54:16.779Z,97465.00
2022-12-04T13:58:21.645Z,97471.00
2022-12-04T14:02:31.657Z,97459.00
2022-12-04T14:06:41.821Z,97456.00
2022-12-04T14:10:44.341Z,97463.00
2022-12-04T14:14:58.185Z,97468.00
2022-12-04T14:19:02.121Z,97463.00
2022-12-04T14:23:10.009Z,97456.00
2022-12-04T14:27:34.956Z,97446.00
2022-12-04T14:31:39.298Z,97447.00
2022-12-04T14:35:47.338Z,97450.00
2022-12-04T14:39:49.773Z,97449.00
2022-12-04T14:43:51.183Z,97444.00
2022-12-04T14:47:59.026Z,97445.00
2022-12-04T14:52:07.359Z,97457.00
2022-12-04T14:56:45.675Z,97464.00
2022-12-04T15:00:52.564Z,97476.00
2022-12-04T15:04:54.306Z,97478.00
2022-12-04T15:09:00.091Z,97478.00
2022-12-04T15:13:01.239Z,97479.00
2022-12-04T15:17:03.044Z,97484.00
2022-12-04T15:21:06.030Z,97474.00
2022-12-04T15:25:23.285Z,97482.00
2022-12-04T15:29:30.152Z,97475.00
2022-12-04T15:33:36.811Z,97485.00
2022-12-04T15:37:41.992Z,97481.00
2022-12-04T15:41:43.737Z,97478.00
2022-12-04T15:45:45.395Z,97483.00
2022-12-04T15:49:46.633Z,97485.00
2022-12-04T15:53:47.956Z,97478.00
2022-12-04T15:57:55.476Z,97479.00
2022-12-04T16:02:00.433Z,97490.00
2022-12-04T16:06:04.671Z,97494.00
2022-12-04T16:10:09.536Z,97492.00
2022-12-04T16:14:14.403Z,97499.00
2022-12-04T16:18:15.625Z,97498.00
2022-12-04T16:22:23.155Z,97503.00
2022-12-04T16:26:24.364Z,97497.00
2022-12-04T16:30:30.556Z,97501.00
2022-12-04T16:34:32.286Z,97500.00
2022-12-04T16:38:33.695Z,97495.00
2022-12-04T16:42:35.071Z,97485.00
2022-12-04T16:46:36.370Z,97487.00
2022-12-04T16:50:37.446Z,97491.00
2022-12-04T16:54:39.660Z,97495.00
2022-12-04T16:58:40.928Z,97496.00
2022-12-04T17:02:43.423Z,97485.00
2022-12-04T17:06:45.542Z,97494.00
2022-12-04T17:10:46.715Z,97491.00
2022-12-04T17:14:47.919Z,97482.00
2022-12-04T17:18:49.032Z,97480.00
2022-12-04T17:22:50.289Z,97492.00
2022-12-04T17:26:51.812Z,97482.00
2022-12-04T17:30:53.004Z,97476.00
2022-12-04T17:34:54.958Z,97482.00
2022-12-04T17:38:58.035Z,97485.00
2022-12-04T17:42:59.150Z,97478.00
2022-12-04T17:47:00.281Z,97475.00
2022-12-04T17:51:07.497Z,97480.00
2022-12-04T17:55:09.121Z,97481.00
2022-12-04T17:59:10.266Z,97484.00
2022-12-04T18:03:11.528Z,97473.00
2022-12-04T18:07:12.628Z,97471.00
2022-12-04T18:11:14.267Z,97490.00
2022-12-04T18:15:15.612Z,97456.00
2022-12-04T18:19:17.012Z,97473.00
2022-12-04T18:23:18.087Z,97470.00
2022-12-04T18:27:19.547Z,97469.00
2022-12-04T18:31:21.364Z,97501.00
2022-12-04T18:35:22.676Z,97464.00
2022-12-04T18:39:25.552Z,97470.00
2022-12-04T18:43:26.795Z,97457.00
2022-12-04T18:47:29.598Z,97457.00
2022-12-04T18:51:34.154Z,97452.00
2022-12-04T18:55:36.698Z,97467.00
2022-12-04T18:59:38.699Z,97459.00
2022-12-04T19:03:40.372Z,97452.00
2022-12-04T19:07:41.727Z,97469.00
2022-12-04T19:11:43.878Z,97460.00
2022-12-04T19:15:46.792Z,97456.00
2022-12-04T19:19:48.469Z,97473.00
2022-12-04T19:23:56.276Z,97479.00
2022-12-04T19:27:57.780Z,97486.00
2022-12-04T19:31:59.811Z,97487.00
2022-12-04T19:36:03.826Z,97487.00
2022-12-04T19:40:06.270Z,97500.00
2022-12-04T19:44:40.233Z,97519.00
2022-12-04T19:48:12.516Z,97518.00
2022-12-04T19:52:14.430Z,97500.00
2022-12-04T19:56:19.338Z,97501.00
2022-12-04T20:00:20.874Z,97495.00
2022-12-04T20:04:22.327Z,97493.00
2022-12-04T20:08:23.693Z,97497.00
2022-12-04T20:12:25.100Z,97502.00
2022-12-04T20:16:29.270Z,97492.00
2022-12-04T20:20:30.665Z,97494.00
2022-12-04T20:24:32.347Z,97500.00
2022-12-04T20:28:34.149Z,97500.00
2022-12-04T20:32:35.675Z,97502.00
2022-12-04T20:36:40.428Z,97513.00
2022-12-04T20:40:41.933Z,97500.00
2022-12-04T20:44:43.206Z,97512.00
2022-12-04T20:48:48.702Z,97511.00
2022-12-04T20:52:50.124Z,97519.00
2022-12-04T20:56:53.085Z,97524.00
2022-12-04T21:00:56.371Z,97546.00
2022-12-04T21:04:57.807Z,97538.00
2022-12-04T21:09:01.535Z,97538.00
2022-12-04T21:13:21.502Z,97543.00
2022-12-04T21:17:23.082Z,97535.00
2022-12-04T21:21:26.672Z,97537.00
2022-12-04T21:25:28.225Z,97538.00
2022-12-04T21:29:29.549Z,97546.00
2022-12-04T21:33:33.173Z,97542.00
2022-12-04T21:37:34.613Z,97517.00
2022-12-04T21:41:54.545Z,97557.00
2022-12-04T21:45:57.375Z,97524.00
2022-12-04T21:49:59.328Z,97544.00
2022-12-04T21:54:01.006Z,97555.00
2022-12-04T21:58:02.160Z,97552.00
2022-12-04T22:02:03.776Z,97556.00
2022-12-04T22:06:05.725Z,97559.00
2022-12-04T22:10:10.867Z,97566.00
2022-12-04T22:14:12.401Z,97562.00
2022-12-04T22:18:14.293Z,97560.00
2022-12-04T22:22:15.645Z,97563.00
2022-12-04T22:26:20.739Z,97552.00
2022-12-04T22:30:21.775Z,97558.00
2022-12-04T22:34:22.882Z,97554.00
2022-12-04T22:38:24.101Z,97555.00
2022-12-04T22:42:25.180Z,97553.00
2022-12-04T22:46:26.729Z,97553.00
2022-12-04T22:50:28.197Z,97555.00
2022-12-04T22:54:29.271Z,97554.00
2022-12-04T22:58:30.324Z,97547.00
2022-12-04T23:02:32.784Z,97548.00
2022-12-04T23:06:34.538Z,97551.00
2022-12-04T23:10:37.626Z,97544.00
2022-12-04T23:14:38.947Z,97551.00
2022-12-04T23:18:40.064Z,97552.00
2022-12-04T23:22:47.524Z,97545.00
2022-12-04T23:26:48.533Z,97558.00
2022-12-04T23:30:49.525Z,97559.00
2022-12-04T23:34:52.316Z,97564.00
2022-12-04T23:38:53.744Z,97567.00
2022-12-04T23:42:54.881Z,97568.00
2022-12-04T23:46:55.807Z,97570.00
2022-12-04T23:50:56.806Z,97574.00
2022-12-04T23:54:57.903Z,97569.00
2022-12-04T23:58:58.908Z,97571.00
